sensor_id;sensor_type;location;lat;lon;timestamp;pressure;altitude;pressure_sealevel;temperature;humidity
13604;BME280;24578;48.264;11.436;2023-02-28T00:00:44;96639.81;;;-2.63;100.00
13604;BME280;24578;48.264;11.436;2023-02-28T00:03:44;96639.09;;;-2.71;100.00
13604;BME280;24578;48.264;11.436;2023-02-28T00:06:45;96642.63;;;-2.81;100.00
13604;BME280;24578;48.264;11.436;2023-02-28T00:09:46;96639.97;;;-2.73;100.00
13604;BME280;24578;48.264;11.436;2023-02-28T00:12:48;96633.31;;;-2.81;100.00
13604;BME280;24578;48.264;11.436;2023-02-28T00:15:59;96624.16;;;-2.93;100.00
13604;BME280;24578;48.264;11.436;2023-02-28T00:19:00;96630.03;;;-2.89;100.00
13604;BME280;24578;48.264;11.436;2023-02-28T00:22:00;96632.59;;;-2.94;100.00
13604;BME280;24578;48.264;11.436;2023-02-28T00:25:01;96624.25;;;-2.99;100.00
13604;BME280;24578;48.264;11.436;2023-02-28T00:28:01;96626.88;;;-3.08;100.00
13604;BME280;24578;48.264;11.436;2023-02-28T00:31:02;96621.94;;;-3.19;100.00
13604;BME280;24578;48.264;11.436;2023-02-28T00:34:03;96625.31;;;-3.18;100.00
13604;BME280;24578;48.264;11.436;2023-02-28T00:37:05;96626.13;;;-3.16;100.00
13604;BME280;24578;48.264;11.436;2023-02-28T00:40:07;96619.50;;;-3.28;100.00
13604;BME280;24578;48.264;11.436;2023-02-28T00:43:08;96631.28;;;-3.24;100.00
13604;BME280;24578;48.264;11.436;2023-02-28T00:46:08;96623.84;;;-3.37;100.00
13604;BME280;24578;48.264;11.436;2023-02-28T00:49:09;96628.84;;;-3.33;100.00
13604;BME280;24578;48.264;11.436;2023-02-28T00:52:09;96623.88;;;-3.40;100.00
13604;BME280;24578;48.264;11.436;2023-02-28T00:55:10;96634.84;;;-3.41;100.00
13604;BME280;24578;48.264;11.436;2023-02-28T00:58:10;96623.84;;;-3.37;100.00
13604;BME280;24578;48.264;11.436;2023-02-28T01:01:11;96631.34;;;-3.30;100.00
13604;BME280;24578;48.264;11.436;2023-02-28T01:04:13;96628.16;;;-3.48;100.00
13604;BME280;24578;48.264;11.436;2023-02-28T01:07:14;96630.59;;;-3.39;100.00
13604;BME280;24578;48.264;11.436;2023-02-28T01:10:15;96619.84;;;-3.59;100.00
13604;BME280;24578;48.264;11.436;2023-02-28T01:13:16;96614.75;;;-3.56;100.00
13604;BME280;24578;48.264;11.436;2023-02-28T01:16:17;96619.84;;;-3.59;100.00
13604;BME280;24578;48.264;11.436;2023-02-28T01:19:18;96628.22;;;-3.54;100.00
13604;BME280;24578;48.264;11.436;2023-02-28T01:22:19;96619.00;;;-3.60;100.00
13604;BME280;24578;48.264;11.436;2023-02-28T01:25:19;96613.19;;;-3.70;100.00
13604;BME280;24578;48.264;11.436;2023-02-28T01:28:20;96602.97;;;-3.60;100.00
13604;BME280;24578;48.264;11.436;2023-02-28T01:31:22;96614.94;;;-3.78;100.00
13604;BME280;24578;48.264;11.436;2023-02-28T01:34:23;96607.31;;;-3.73;100.00
13604;BME280;24578;48.264;11.436;2023-02-28T01:37:24;96601.41;;;-3.72;100.00
13604;BME280;24578;48.264;11.436;2023-02-28T01:40:24;96597.25;;;-3.81;100.00
13604;BME280;24578;48.264;11.436;2023-02-28T01:43:28;96603.19;;;-3.80;100.00
13604;BME280;24578;48.264;11.436;2023-02-28T01:46:31;96614.16;;;-3.83;100.00
13604;BME280;24578;48.264;11.436;2023-02-28T01:49:32;96609.13;;;-3.83;100.00
13604;BME280;24578;48.264;11.436;2023-02-28T01:52:33;96604.13;;;-3.91;100.00
13604;BME280;24578;48.264;11.436;2023-02-28T01:55:35;96605.72;;;-3.82;100.00
13604;BME280;24578;48.264;11.436;2023-02-28T01:58:37;96609.28;;;-4.02;100.00
13604;BME280;24578;48.264;11.436;2023-02-28T02:01:37;96602.56;;;-4.09;100.00
13604;BME280;24578;48.264;11.436;2023-02-28T02:04:50;96603.47;;;-4.13;100.00
13604;BME280;24578;48.264;11.436;2023-02-28T02:08:02;96605.13;;;-4.12;100.00
13604;BME280;24578;48.264;11.436;2023-02-28T02:11:03;96600.03;;;-4.09;100.00
13604;BME280;24578;48.264;11.436;2023-02-28T02:14:15;96606.00;;;-4.13;100.00
13604;BME280;24578;48.264;11.436;2023-02-28T02:17:26;96598.31;;;-4.04;100.00
13604;BME280;24578;48.264;11.436;2023-02-28T02:21:02;96598.28;;;-3.98;100.00
13604;BME280;24578;48.264;11.436;2023-02-28T02:31:20;96591.53;;;-3.99;100.00
13604;BME280;24578;48.264;11.436;2023-02-28T02:41:53;96578.91;;;-4.00;100.00
13604;BME280;24578;48.264;11.436;2023-02-28T02:45:12;96577.16;;;-3.93;100.00
13604;BME280;24578;48.264;11.436;2023-02-28T02:48:21;96573.88;;;-4.05;100.00
13604;BME280;24578;48.264;11.436;2023-02-28T02:51:28;96584.06;;;-4.13;100.00
13604;BME280;24578;48.264;11.436;2023-02-28T02:54:40;96581.41;;;-3.97;100.00
13604;BME280;24578;48.264;11.436;2023-02-28T02:57:57;96579.78;;;-4.06;100.00
13604;BME280;24578;48.264;11.436;2023-02-28T03:01:02;96572.28;;;-4.15;100.00
13604;BME280;24578;48.264;11.436;2023-02-28T03:04:12;96581.56;;;-4.16;100.00
13604;BME280;24578;48.264;11.436;2023-02-28T03:07:15;96571.41;;;-4.09;100.00
13604;BME280;24578;48.264;11.436;2023-02-28T03:10:38;96576.50;;;-4.16;100.00
13604;BME280;24578;48.264;11.436;2023-02-28T03:17:29;96566.97;;;-3.84;100.00
13604;BME280;24578;48.264;11.436;2023-02-28T03:20:59;96565.16;;;-3.73;100.00
13604;BME280;24578;48.264;11.436;2023-02-28T03:24:11;96583.72;;;-3.77;100.00
13604;BME280;24578;48.264;11.436;2023-02-28T03:27:28;96582.16;;;-3.87;100.00
13604;BME280;24578;48.264;11.436;2023-02-28T03:30:43;96586.25;;;-3.74;100.00
13604;BME280;24578;48.264;11.436;2023-02-28T03:33:54;96586.13;;;-3.64;100.00
13604;BME280;24578;48.264;11.436;2023-02-28T03:37:07;96587.72;;;-3.54;100.00
13604;BME280;24578;48.264;11.436;2023-02-28T03:40:14;96587.78;;;-3.60;100.00
13604;BME280;24578;48.264;11.436;2023-02-28T03:43:23;96582.66;;;-3.56;100.00
13604;BME280;24578;48.264;11.436;2023-02-28T03:46:31;96596.88;;;-3.42;100.00
13604;BME280;24578;48.264;11.436;2023-02-28T03:56:22;96599.44;;;-3.44;100.00
13604;BME280;24578;48.264;11.436;2023-02-28T03:59:37;96590.94;;;-3.37;100.00
13604;BME280;24578;48.264;11.436;2023-02-28T04:02:40;96589.22;;;-3.36;100.00
13604;BME280;24578;48.264;11.436;2023-02-28T04:05:52;96594.22;;;-3.31;100.00
13604;BME280;24578;48.264;11.436;2023-02-28T04:08:53;96590.81;;;-3.27;100.00
13604;BME280;24578;48.264;11.436;2023-02-28T04:11:54;96597.56;;;-3.28;100.00
13604;BME280;24578;48.264;11.436;2023-02-28T04:14:56;96596.78;;;-3.34;100.00
13604;BME280;24578;48.264;11.436;2023-02-28T04:17:57;96587.44;;;-3.29;100.00
13604;BME280;24578;48.264;11.436;2023-02-28T04:21:00;96593.31;;;-3.24;100.00
13604;BME280;24578;48.264;11.436;2023-02-28T04:24:02;96605.97;;;-3.24;100.00
13604;BME280;24578;48.264;11.436;2023-02-28T04:27:03;96613.44;;;-3.13;100.00
13604;BME280;24578;48.264;11.436;2023-02-28T04:30:03;96621.91;;;-3.16;100.00
13604;BME280;24578;48.264;11.436;2023-02-28T04:33:04;96621.75;;;-3.03;100.00
13604;BME280;24578;48.264;11.436;2023-02-28T04:36:07;96621.66;;;-2.94;100.00
13604;BME280;24578;48.264;11.436;2023-02-28T04:39:08;96614.94;;;-2.97;100.00
13604;BME280;24578;48.264;11.436;2023-02-28T04:42:11;96609.13;;;-3.05;100.00
13604;BME280;24578;48.264;11.436;2023-02-28T04:45:11;96609.03;;;-2.97;100.00
13604;BME280;24578;48.264;11.436;2023-02-28T04:48:12;96617.41;;;-2.94;100.00
13604;BME280;24578;48.264;11.436;2023-02-28T04:51:14;96604.75;;;-2.92;100.00
13604;BME280;24578;48.264;11.436;2023-02-28T04:54:15;96612.44;;;-3.00;100.00
13604;BME280;24578;48.264;11.436;2023-02-28T04:57:16;96624.38;;;-3.11;100.00
13604;BME280;24578;48.264;11.436;2023-02-28T05:00:17;96622.56;;;-3.01;100.00
13604;BME280;24578;48.264;11.436;2023-02-28T05:03:18;96616.88;;;-3.17;100.00
13604;BME280;24578;48.264;11.436;2023-02-28T05:06:20;96619.41;;;-3.19;100.00
13604;BME280;24578;48.264;11.436;2023-02-28T05:09:21;96631.03;;;-3.02;100.00
13604;BME280;24578;48.264;11.436;2023-02-28T05:12:22;96630.16;;;-3.01;100.00
13604;BME280;24578;48.264;11.436;2023-02-28T05:15:22;96621.66;;;-2.96;100.00
13604;BME280;24578;48.264;11.436;2023-02-28T05:18:23;96630.13;;;-2.97;100.00
13604;BME280;24578;48.264;11.436;2023-02-28T05:21:33;96635.88;;;-2.82;100.00
13604;BME280;24578;48.264;11.436;2023-02-28T05:24:34;96645.19;;;-2.86;100.00
13604;BME280;24578;48.264;11.436;2023-02-28T05:27:34;96646.97;;;-2.91;100.00
13604;BME280;24578;48.264;11.436;2023-02-28T05:30:35;96645.34;;;-2.98;100.00
13604;BME280;24578;48.264;11.436;2023-02-28T05:33:35;96636.91;;;-3.00;100.00
13604;BME280;24578;48.264;11.436;2023-02-28T05:36:37;96639.41;;;-2.97;100.00
13604;BME280;24578;48.264;11.436;2023-02-28T05:39:38;96641.03;;;-2.92;100.00
13604;BME280;24578;48.264;11.436;2023-02-28T05:42:39;96646.13;;;-2.93;100.00
13604;BME280;24578;48.264;11.436;2023-02-28T05:45:39;96640.19;;;-2.89;100.00
13604;BME280;24578;48.264;11.436;2023-02-28T05:48:41;96646.19;;;-2.99;100.00
13604;BME280;24578;48.264;11.436;2023-02-28T05:51:42;96641.88;;;-2.91;100.00
13604;BME280;24578;48.264;11.436;2023-02-28T05:54:43;96642.63;;;-2.83;100.00
13604;BME280;24578;48.264;11.436;2023-02-28T05:57:43;96650.19;;;-2.80;100.00
13604;BME280;24578;48.264;11.436;2023-02-28T06:00:44;96651.94;;;-2.83;100.00
13604;BME280;24578;48.264;11.436;2023-02-28T06:03:44;96638.44;;;-2.87;100.00
13604;BME280;24578;48.264;11.436;2023-02-28T06:06:49;96635.19;;;-2.95;100.00
13604;BME280;24578;48.264;11.436;2023-02-28T06:09:49;96648.56;;;-2.87;100.00
13604;BME280;24578;48.264;11.436;2023-02-28T06:12:50;96652.75;;;-2.83;100.00
13604;BME280;24578;48.264;11.436;2023-02-28T06:15:51;96652.94;;;-2.97;100.00
13604;BME280;24578;48.264;11.436;2023-02-28T06:18:51;96662.03;;;-2.82;100.00
13604;BME280;24578;48.264;11.436;2023-02-28T06:21:53;96657.00;;;-2.85;100.00
13604;BME280;24578;48.264;11.436;2023-02-28T06:24:54;96664.59;;;-2.85;100.00
13604;BME280;24578;48.264;11.436;2023-02-28T06:27:56;96660.47;;;-2.92;100.00
13604;BME280;24578;48.264;11.436;2023-02-28T06:30:56;96674.00;;;-2.93;100.00
13604;BME280;24578;48.264;11.436;2023-02-28T06:33:57;96665.41;;;-2.80;100.00
13604;BME280;24578;48.264;11.436;2023-02-28T06:36:57;96671.16;;;-2.68;100.00
13604;BME280;24578;48.264;11.436;2023-02-28T06:40:02;96674.53;;;-2.68;100.00
13604;BME280;24578;48.264;11.436;2023-02-28T06:43:03;96680.44;;;-2.66;100.00
13604;BME280;24578;48.264;11.436;2023-02-28T06:46:06;96660.97;;;-2.65;100.00
13604;BME280;24578;48.264;11.436;2023-02-28T06:49:09;96681.25;;;-2.65;100.00
13604;BME280;24578;48.264;11.436;2023-02-28T06:52:09;96678.72;;;-2.65;100.00
13604;BME280;24578;48.264;11.436;2023-02-28T06:55:10;96677.22;;;-2.79;100.00
13604;BME280;24578;48.264;11.436;2023-02-28T06:58:11;96699.06;;;-2.70;100.00
13604;BME280;24578;48.264;11.436;2023-02-28T07:01:20;96707.31;;;-2.54;100.00
13604;BME280;24578;48.264;11.436;2023-02-28T07:04:23;96708.91;;;-2.48;100.00
13604;BME280;24578;48.264;11.436;2023-02-28T07:07:24;96710.56;;;-2.42;100.00
13604;BME280;24578;48.264;11.436;2023-02-28T07:10:25;96712.16;;;-2.34;100.00
13604;BME280;24578;48.264;11.436;2023-02-28T07:13:25;96700.25;;;-2.30;100.00
13604;BME280;24578;48.264;11.436;2023-02-28T07:16:26;96722.28;;;-2.35;100.00
13604;BME280;24578;48.264;11.436;2023-02-28T07:19:27;96710.56;;;-2.42;100.00
13604;BME280;24578;48.264;11.436;2023-02-28T07:22:27;96706.16;;;-2.28;100.00
13604;BME280;24578;48.264;11.436;2023-02-28T07:25:29;96700.97;;;-2.22;100.00
13604;BME280;24578;48.264;11.436;2023-02-28T07:28:30;96713.00;;;-2.36;100.00
13604;BME280;24578;48.264;11.436;2023-02-28T07:31:31;96720.53;;;-2.30;100.00
13604;BME280;24578;48.264;11.436;2023-02-28T07:34:31;96715.47;;;-2.32;100.00
13604;BME280;24578;48.264;11.436;2023-02-28T07:37:32;96716.34;;;-2.34;100.00
13604;BME280;24578;48.264;11.436;2023-02-28T07:40:36;96716.16;;;-2.19;100.00
13604;BME280;24578;48.264;11.436;2023-02-28T07:43:37;96716.69;;;-1.95;100.00
13604;BME280;24578;48.264;11.436;2023-02-28T07:46:38;96724.22;;;-1.92;100.00
13604;BME280;24578;48.264;11.436;2023-02-28T07:49:38;96718.16;;;-1.81;100.00
13604;BME280;24578;48.264;11.436;2023-02-28T07:52:39;96718.16;;;-1.83;100.00
13604;BME280;24578;48.264;11.436;2023-02-28T07:55:40;96706.41;;;-1.89;100.00
13604;BME280;24578;48.264;11.436;2023-02-28T07:58:41;96707.13;;;-1.79;100.00
13604;BME280;24578;48.264;11.436;2023-02-28T08:01:42;96711.25;;;-1.73;100.00
13604;BME280;24578;48.264;11.436;2023-02-28T08:04:45;96715.38;;;-1.67;100.00
13604;BME280;24578;48.264;11.436;2023-02-28T08:07:45;96718.75;;;-1.65;100.00
13604;BME280;24578;48.264;11.436;2023-02-28T08:10:47;96728.00;;;-1.63;100.00
13604;BME280;24578;48.264;11.436;2023-02-28T08:13:48;96725.31;;;-1.52;100.00
13604;BME280;24578;48.264;11.436;2023-02-28T08:16:48;96732.84;;;-1.46;100.00
13604;BME280;24578;48.264;11.436;2023-02-28T08:19:49;96729.56;;;-1.54;100.00
13604;BME280;24578;48.264;11.436;2023-02-28T08:22:50;96733.72;;;-1.48;100.00
13604;BME280;24578;48.264;11.436;2023-02-28T08:25:55;96733.53;;;-1.36;100.00
13604;BME280;24578;48.264;11.436;2023-02-28T08:28:56;96730.75;;;-1.24;100.00
13604;BME280;24578;48.264;11.436;2023-02-28T08:31:56;96735.72;;;-1.16;100.00
13604;BME280;24578;48.264;11.436;2023-02-28T08:34:57;96741.59;;;-1.14;100.00
13604;BME280;24578;48.264;11.436;2023-02-28T08:37:57;96751.56;;;-1.51;100.00
13604;BME280;24578;48.264;11.436;2023-02-28T08:41:07;96743.81;;;-1.44;100.00
13604;BME280;24578;48.264;11.436;2023-02-28T08:44:09;96748.72;;;-1.34;100.00
13604;BME280;24578;48.264;11.436;2023-02-28T08:47:09;96750.06;;;-1.13;100.00
13604;BME280;24578;48.264;11.436;2023-02-28T08:50:10;96743.06;;;-1.00;100.00
13604;BME280;24578;48.264;11.436;2023-02-28T08:53:10;96754.69;;;-0.87;100.00
13604;BME280;24578;48.264;11.436;2023-02-28T08:56:13;96756.31;;;-0.84;100.00
13604;BME280;24578;48.264;11.436;2023-02-28T08:59:14;96747.69;;;-0.75;100.00
13604;BME280;24578;48.264;11.436;2023-02-28T09:02:14;96747.09;;;-0.88;100.00
13604;BME280;24578;48.264;11.436;2023-02-28T09:05:15;96741.16;;;-0.45;100.00
13604;BME280;24578;48.264;11.436;2023-02-28T09:08:16;96743.34;;;-0.26;98.19
13604;BME280;24578;48.264;11.436;2023-02-28T09:11:17;96744.19;;;0.13;95.68
13604;BME280;24578;48.264;11.436;2023-02-28T09:14:18;96738.63;;;0.34;94.63
13604;BME280;24578;48.264;11.436;2023-02-28T09:17:20;96743.72;;;0.34;93.74
13604;BME280;24578;48.264;11.436;2023-02-28T09:20:21;96740.53;;;0.24;93.94
13604;BME280;24578;48.264;11.436;2023-02-28T09:23:21;96748.00;;;0.68;90.64
13604;BME280;24578;48.264;11.436;2023-02-28T09:26:25;96745.56;;;0.98;88.27
13604;BME280;24578;48.264;11.436;2023-02-28T09:29:26;96740.34;;;1.34;86.91
13604;BME280;24578;48.264;11.436;2023-02-28T09:32:27;96743.38;;;1.78;84.40
13604;BME280;24578;48.264;11.436;2023-02-28T09:35:27;96757.63;;;1.86;83.56
13604;BME280;24578;48.264;11.436;2023-02-28T09:38:28;96759.28;;;1.57;82.45
13604;BME280;24578;48.264;11.436;2023-02-28T09:41:40;96768.53;;;1.29;84.16
13604;BME280;24578;48.264;11.436;2023-02-28T09:44:50;96780.75;;;1.49;83.36
13604;BME280;24578;48.264;11.436;2023-02-28T09:47:55;96763.34;;;1.32;84.97
13604;BME280;24578;48.264;11.436;2023-02-28T09:51:05;96770.91;;;1.67;82.63
13604;BME280;24578;48.264;11.436;2023-02-28T09:54:08;96768.94;;;1.77;83.34
13604;BME280;24578;48.264;11.436;2023-02-28T09:57:27;96768.91;;;1.78;80.73
13604;BME280;24578;48.264;11.436;2023-02-28T10:00:36;96779.19;;;1.45;82.17
13604;BME280;24578;48.264;11.436;2023-02-28T10:03:46;96776.88;;;1.67;83.21
13604;BME280;24578;48.264;11.436;2023-02-28T10:06:50;96781.09;;;1.98;80.68
13604;BME280;24578;48.264;11.436;2023-02-28T10:09:55;96781.75;;;2.05;80.56
13604;BME280;24578;48.264;11.436;2023-02-28T10:13:04;96780.25;;;2.26;78.24
13604;BME280;24578;48.264;11.436;2023-02-28T10:16:14;96776.22;;;2.19;77.73
13604;BME280;24578;48.264;11.436;2023-02-28T10:23:09;96779.34;;;3.35;72.46
13604;BME280;24578;48.264;11.436;2023-02-28T10:26:15;96777.78;;;3.80;70.35
13604;BME280;24578;48.264;11.436;2023-02-28T10:29:16;96779.47;;;4.03;69.97
13604;BME280;24578;48.264;11.436;2023-02-28T10:32:20;96769.47;;;4.41;67.50
13604;BME280;24578;48.264;11.436;2023-02-28T10:35:26;96770.28;;;4.86;64.75
13604;BME280;24578;48.264;11.436;2023-02-28T10:38:38;96759.97;;;6.63;59.45
13604;BME280;24578;48.264;11.436;2023-02-28T10:41:43;96766.44;;;8.40;49.83
13604;BME280;24578;48.264;11.436;2023-02-28T10:44:43;96773.06;;;8.28;45.72
13604;BME280;24578;48.264;11.436;2023-02-28T10:50:55;96769.78;;;7.43;48.40
13604;BME280;24578;48.264;11.436;2023-02-28T10:53:58;96769.22;;;6.85;48.71
13604;BME280;24578;48.264;11.436;2023-02-28T10:57:08;96787.16;;;5.33;53.49
13604;BME280;24578;48.264;11.436;2023-02-28T11:00:22;96772.59;;;5.93;54.61
13604;BME280;24578;48.264;11.436;2023-02-28T11:03:34;96770.72;;;7.75;48.71
13604;BME280;24578;48.264;11.436;2023-02-28T11:06:35;96770.50;;;8.60;45.30
13604;BME280;24578;48.264;11.436;2023-02-28T11:09:39;96753.59;;;9.60;41.56
13604;BME280;24578;48.264;11.436;2023-02-28T11:12:41;96758.47;;;9.36;42.04
13604;BME280;24578;48.264;11.436;2023-02-28T11:15:51;96755.53;;;10.42;40.08
13604;BME280;24578;48.264;11.436;2023-02-28T11:18:55;96752.72;;;10.45;39.33
13604;BME280;24578;48.264;11.436;2023-02-28T11:22:00;96765.94;;;9.55;40.74
13604;BME280;24578;48.264;11.436;2023-02-28T11:25:09;96761.44;;;9.88;39.82
13604;BME280;24578;48.264;11.436;2023-02-28T11:28:33;96757.16;;;10.01;38.43
13604;BME280;24578;48.264;11.436;2023-02-28T11:31:34;96756.44;;;9.56;40.23
13604;BME280;24578;48.264;11.436;2023-02-28T11:34:36;96756.88;;;10.06;38.88
13604;BME280;24578;48.264;11.436;2023-02-28T11:37:39;96755.06;;;8.91;41.22
13604;BME280;24578;48.264;11.436;2023-02-28T11:41:00;96751.44;;;8.47;42.60
13604;BME280;24578;48.264;11.436;2023-02-28T11:47:48;96743.50;;;7.20;45.86
13604;BME280;24578;48.264;11.436;2023-02-28T11:51:21;96750.16;;;6.72;46.52
13604;BME280;24578;48.264;11.436;2023-02-28T11:54:57;96748.19;;;6.59;47.23
13604;BME280;24578;48.264;11.436;2023-02-28T11:58:11;96747.25;;;7.64;44.39
13604;BME280;24578;48.264;11.436;2023-02-28T12:08:15;96729.72;;;8.35;44.22
13604;BME280;24578;48.264;11.436;2023-02-28T12:11:31;96723.34;;;9.03;41.69
13604;BME280;24578;48.264;11.436;2023-02-28T12:14:43;96732.66;;;8.61;42.39
13604;BME280;24578;48.264;11.436;2023-02-28T12:21:26;96721.31;;;8.47;42.46
13604;BME280;24578;48.264;11.436;2023-02-28T12:27:40;96715.00;;;8.37;43.09
13604;BME280;24578;48.264;11.436;2023-02-28T12:31:00;96722.19;;;8.78;41.22
13604;BME280;24578;48.264;11.436;2023-02-28T12:34:22;96707.16;;;8.71;42.11
13604;BME280;24578;48.264;11.436;2023-02-28T12:37:33;96713.28;;;8.84;41.12
13604;BME280;24578;48.264;11.436;2023-02-28T12:40:47;96717.28;;;7.79;42.96
13604;BME280;24578;48.264;11.436;2023-02-28T12:44:03;96720.69;;;7.46;43.97
13604;BME280;24578;48.264;11.436;2023-02-28T12:47:14;96702.53;;;7.49;45.13
13604;BME280;24578;48.264;11.436;2023-02-28T12:50:15;96695.56;;;7.99;44.59
13604;BME280;24578;48.264;11.436;2023-02-28T12:53:26;96694.28;;;8.85;43.07
13604;BME280;24578;48.264;11.436;2023-02-28T12:56:48;96695.72;;;8.75;41.82
13604;BME280;24578;48.264;11.436;2023-02-28T13:00:08;96691.94;;;8.80;42.93
13604;BME280;24578;48.264;11.436;2023-02-28T13:06:57;96691.47;;;9.33;41.22
13604;BME280;24578;48.264;11.436;2023-02-28T13:10:04;96684.13;;;8.82;42.07
13604;BME280;24578;48.264;11.436;2023-02-28T13:13:15;96684.41;;;8.31;42.83
13604;BME280;24578;48.264;11.436;2023-02-28T13:16:16;96692.53;;;8.39;43.39
13604;BME280;24578;48.264;11.436;2023-02-28T13:19:21;96688.88;;;8.43;42.64
13604;BME280;24578;48.264;11.436;2023-02-28T13:22:42;96684.59;;;7.96;44.25
13604;BME280;24578;48.264;11.436;2023-02-28T13:32:28;96695.03;;;7.44;45.67
13604;BME280;24578;48.264;11.436;2023-02-28T13:35:43;96697.16;;;7.36;47.30
13604;BME280;24578;48.264;11.436;2023-02-28T13:38:56;96701.72;;;7.65;44.82
13604;BME280;24578;48.264;11.436;2023-02-28T13:46:06;96697.47;;;8.28;44.20
13604;BME280;24578;48.264;11.436;2023-02-28T13:52:28;96699.47;;;8.06;43.34
13604;BME280;24578;48.264;11.436;2023-02-28T13:59:00;96691.94;;;8.80;42.59
13604;BME280;24578;48.264;11.436;2023-02-28T14:05:34;96691.06;;;8.03;43.60
13604;BME280;24578;48.264;11.436;2023-02-28T14:08:36;96690.34;;;8.01;43.93
13604;BME280;24578;48.264;11.436;2023-02-28T14:11:39;96692.31;;;7.64;44.19
13604;BME280;24578;48.264;11.436;2023-02-28T14:17:40;96695.56;;;7.83;44.39
13604;BME280;24578;48.264;11.436;2023-02-28T14:20:43;96698.38;;;7.78;44.43
13604;BME280;24578;48.264;11.436;2023-02-28T14:27:35;96700.03;;;6.96;46.34
13604;BME280;24578;48.264;11.436;2023-02-28T14:37:28;96705.94;;;6.09;49.56
13604;BME280;24578;48.264;11.436;2023-02-28T14:40:33;96693.63;;;6.16;50.18
13604;BME280;24578;48.264;11.436;2023-02-28T14:43:35;96694.72;;;6.29;49.20
13604;BME280;24578;48.264;11.436;2023-02-28T14:46:39;96703.63;;;6.22;50.09
13604;BME280;24578;48.264;11.436;2023-02-28T14:49:45;96694.63;;;5.75;50.88
13604;BME280;24578;48.264;11.436;2023-02-28T14:52:46;96703.34;;;6.28;51.11
13604;BME280;24578;48.264;11.436;2023-02-28T14:55:48;96697.09;;;6.86;48.08
13604;BME280;24578;48.264;11.436;2023-02-28T14:58:55;96696.66;;;6.78;48.16
13604;BME280;24578;48.264;11.436;2023-02-28T15:02:15;96692.03;;;6.50;48.77
13604;BME280;24578;48.264;11.436;2023-02-28T15:05:31;96698.53;;;5.84;49.52
13604;BME280;24578;48.264;11.436;2023-02-28T15:08:32;96701.50;;;5.36;52.08
13604;BME280;24578;48.264;11.436;2023-02-28T15:11:37;96706.19;;;5.26;53.21
13604;BME280;24578;48.264;11.436;2023-02-28T15:14:42;96697.31;;;5.33;52.83
13604;BME280;24578;48.264;11.436;2023-02-28T15:17:50;96696.97;;;5.01;54.56
13604;BME280;24578;48.264;11.436;2023-02-28T15:20:53;96700.53;;;4.56;55.62
13604;BME280;24578;48.264;11.436;2023-02-28T15:24:31;96700.94;;;4.47;56.87
13604;BME280;24578;48.264;11.436;2023-02-28T15:27:33;96701.22;;;4.39;57.76
13604;BME280;24578;48.264;11.436;2023-02-28T15:30:36;96706.19;;;4.21;57.73
13604;BME280;24578;48.264;11.436;2023-02-28T15:33:37;96704.13;;;4.09;60.24
13604;BME280;24578;48.264;11.436;2023-02-28T15:36:37;96705.47;;;4.18;58.31
13604;BME280;24578;48.264;11.436;2023-02-28T15:39:42;96706.72;;;4.07;59.38
13604;BME280;24578;48.264;11.436;2023-02-28T15:43:13;96722.19;;;3.82;62.02
13604;BME280;24578;48.264;11.436;2023-02-28T15:46:19;96726.38;;;3.85;62.87
13604;BME280;24578;48.264;11.436;2023-02-28T15:49:21;96716.44;;;3.75;61.69
13604;BME280;24578;48.264;11.436;2023-02-28T15:52:44;96723.75;;;3.39;62.95
13604;BME280;24578;48.264;11.436;2023-02-28T15:55:53;96729.94;;;3.33;63.98
13604;BME280;24578;48.264;11.436;2023-02-28T15:59:03;96729.22;;;3.29;64.24
13604;BME280;24578;48.264;11.436;2023-02-28T16:02:25;96730.53;;;3.16;65.65
13604;BME280;24578;48.264;11.436;2023-02-28T16:05:31;96720.50;;;3.10;67.09
13604;BME280;24578;48.264;11.436;2023-02-28T16:08:35;96727.63;;;3.01;66.39
13604;BME280;24578;48.264;11.436;2023-02-28T16:11:40;96729.28;;;3.02;66.44
13604;BME280;24578;48.264;11.436;2023-02-28T16:14:42;96734.03;;;2.88;67.57
13604;BME280;24578;48.264;11.436;2023-02-28T16:17:43;96733.34;;;2.83;69.81
13604;BME280;24578;48.264;11.436;2023-02-28T16:20:45;96737.75;;;2.78;69.51
13604;BME280;24578;48.264;11.436;2023-02-28T16:23:45;96729.63;;;2.66;69.92
13604;BME280;24578;48.264;11.436;2023-02-28T16:26:48;96733.56;;;2.50;73.08
13604;BME280;24578;48.264;11.436;2023-02-28T16:29:49;96729.47;;;2.44;74.73
13604;BME280;24578;48.264;11.436;2023-02-28T16:32:51;96731.16;;;2.45;74.76
13604;BME280;24578;48.264;11.436;2023-02-28T16:35:52;96728.94;;;2.34;75.54
13604;BME280;24578;48.264;11.436;2023-02-28T16:38:54;96729.31;;;2.22;77.16
13604;BME280;24578;48.264;11.436;2023-02-28T16:41:54;96728.69;;;2.15;79.03
13604;BME280;24578;48.264;11.436;2023-02-28T16:44:55;96734.13;;;2.03;80.83
13604;BME280;24578;48.264;11.436;2023-02-28T16:47:56;96739.44;;;1.96;80.58
13604;BME280;24578;48.264;11.436;2023-02-28T16:50:57;96733.81;;;1.85;82.03
13604;BME280;24578;48.264;11.436;2023-02-28T16:53:57;96740.84;;;1.77;86.54
13604;BME280;24578;48.264;11.436;2023-02-28T16:56:59;96740.28;;;1.67;86.72
13604;BME280;24578;48.264;11.436;2023-02-28T16:59:59;96754.19;;;1.57;88.10
13604;BME280;24578;48.264;11.436;2023-02-28T17:03:00;96752.13;;;1.40;88.90
13604;BME280;24578;48.264;11.436;2023-02-28T17:06:03;96754.97;;;1.27;90.65
13604;BME280;24578;48.264;11.436;2023-02-28T17:09:04;96762.75;;;1.24;93.44
13604;BME280;24578;48.264;11.436;2023-02-28T17:12:04;96756.94;;;1.17;92.81
13604;BME280;24578;48.264;11.436;2023-02-28T17:15:06;96771.53;;;1.12;93.76
13604;BME280;24578;48.264;11.436;2023-02-28T17:18:13;96775.09;;;1.05;94.15
13604;BME280;24578;48.264;11.436;2023-02-28T17:21:16;96775.28;;;0.99;95.41
13604;BME280;24578;48.264;11.436;2023-02-28T17:24:17;96781.56;;;0.85;96.48
13604;BME280;24578;48.264;11.436;2023-02-28T17:27:17;96779.16;;;0.79;98.13
13604;BME280;24578;48.264;11.436;2023-02-28T17:30:21;96774.19;;;0.74;98.11